sensor_id;sensor_type;location;lat;lon;timestamp;temperature;humidity
68251;DHT22;55066;51.560;4.642;2022-11-27T00:01:48;6.10;99.99
68251;DHT22;55066;51.560;4.642;2022-11-27T00:04:14;6.03;99.99
68251;DHT22;55066;51.560;4.642;2022-11-27T00:06:40;6.03;99.99
68251;DHT22;55066;51.560;4.642;2022-11-27T00:09:09;6.03;99.99
68251;DHT22;55066;51.560;4.642;2022-11-27T00:11:35;6.01;99.99
68251;DHT22;55066;51.560;4.642;2022-11-27T00:14:04;6.06;99.99
68251;DHT22;55066;51.560;4.642;2022-11-27T00:16:30;6.14;99.99
68251;DHT22;55066;51.560;4.642;2022-11-27T00:18:56;6.06;99.99
68251;DHT22;55066;51.560;4.642;2022-11-27T00:21:26;6.10;99.99
68251;DHT22;55066;51.560;4.642;2022-11-27T00:23:53;6.10;99.99
68251;DHT22;55066;51.560;4.642;2022-11-27T00:26:20;6.07;99.99
68251;DHT22;55066;51.560;4.642;2022-11-27T00:28:45;6.17;99.99
68251;DHT22;55066;51.560;4.642;2022-11-27T00:31:24;6.11;99.99
68251;DHT22;55066;51.560;4.642;2022-11-27T00:33:57;6.01;99.99
68251;DHT22;55066;51.560;4.642;2022-11-27T00:36:23;6.06;99.99
68251;DHT22;55066;51.560;4.642;2022-11-27T00:38:49;6.13;99.99
68251;DHT22;55066;51.560;4.642;2022-11-27T00:41:16;6.13;99.99
68251;DHT22;55066;51.560;4.642;2022-11-27T00:43:43;6.04;99.99
68251;DHT22;55066;51.560;4.642;2022-11-27T00:46:08;6.13;99.99
68251;DHT22;55066;51.560;4.642;2022-11-27T00:48:34;6.07;99.99
68251;DHT22;55066;51.560;4.642;2022-11-27T00:51:05;6.06;99.99
68251;DHT22;55066;51.560;4.642;2022-11-27T00:53:31;6.10;99.99
68251;DHT22;55066;51.560;4.642;2022-11-27T00:55:57;6.17;99.99
68251;DHT22;55066;51.560;4.642;2022-11-27T00:58:24;6.10;99.99
68251;DHT22;55066;51.560;4.642;2022-11-27T01:01:00;6.20;99.99
68251;DHT22;55066;51.560;4.642;2022-11-27T01:03:28;6.13;99.99
68251;DHT22;55066;51.560;4.642;2022-11-27T01:05:53;6.24;99.99
68251;DHT22;55066;51.560;4.642;2022-11-27T01:08:19;6.27;99.99
68251;DHT22;55066;51.560;4.642;2022-11-27T01:10:49;6.28;99.99
68251;DHT22;55066;51.560;4.642;2022-11-27T01:13:14;6.29;99.99
68251;DHT22;55066;51.560;4.642;2022-11-27T01:15:40;6.32;99.99
68251;DHT22;55066;51.560;4.642;2022-11-27T01:18:05;6.31;99.99
68251;DHT22;55066;51.560;4.642;2022-11-27T01:20:31;6.35;99.99
68251;DHT22;55066;51.560;4.642;2022-11-27T01:22:56;6.35;99.99
68251;DHT22;55066;51.560;4.642;2022-11-27T01:25:21;6.31;99.99
68251;DHT22;55066;51.560;4.642;2022-11-27T01:27:47;6.36;99.99
68251;DHT22;55066;51.560;4.642;2022-11-27T01:30:13;6.34;99.99
68251;DHT22;55066;51.560;4.642;2022-11-27T01:32:38;6.34;99.99
68251;DHT22;55066;51.560;4.642;2022-11-27T01:35:04;6.38;99.99
68251;DHT22;55066;51.560;4.642;2022-11-27T01:37:29;6.32;99.99
68251;DHT22;55066;51.560;4.642;2022-11-27T01:39:55;6.34;99.99
68251;DHT22;55066;51.560;4.642;2022-11-27T01:42:20;6.36;99.99
68251;DHT22;55066;51.560;4.642;2022-11-27T01:44:49;6.36;99.99
68251;DHT22;55066;51.560;4.642;2022-11-27T01:47:28;6.36;99.99
68251;DHT22;55066;51.560;4.642;2022-11-27T01:50:06;6.34;99.99
68251;DHT22;55066;51.560;4.642;2022-11-27T01:52:36;6.32;99.99
68251;DHT22;55066;51.560;4.642;2022-11-27T01:55:20;6.35;99.99
68251;DHT22;55066;51.560;4.642;2022-11-27T01:57:54;6.32;99.99
68251;DHT22;55066;51.560;4.642;2022-11-27T02:00:20;6.34;99.99
68251;DHT22;55066;51.560;4.642;2022-11-27T02:02:47;6.35;99.99
68251;DHT22;55066;51.560;4.642;2022-11-27T02:05:23;6.36;99.99
68251;DHT22;55066;51.560;4.642;2022-11-27T02:07:49;6.41;99.99
68251;DHT22;55066;51.560;4.642;2022-11-27T02:10:16;6.32;99.99
68251;DHT22;55066;51.560;4.642;2022-11-27T02:12:48;6.29;99.99
68251;DHT22;55066;51.560;4.642;2022-11-27T02:17:55;6.35;99.99
68251;DHT22;55066;51.560;4.642;2022-11-27T02:31:41;6.42;99.99
68251;DHT22;55066;51.560;4.642;2022-11-27T02:36:57;6.45;99.99
68251;DHT22;55066;51.560;4.642;2022-11-27T02:39:33;6.50;99.99
68251;DHT22;55066;51.560;4.642;2022-11-27T02:42:06;6.49;99.99
68251;DHT22;55066;51.560;4.642;2022-11-27T02:44:40;6.46;99.99
68251;DHT22;55066;51.560;4.642;2022-11-27T02:47:07;6.46;99.99
68251;DHT22;55066;51.560;4.642;2022-11-27T02:49:34;6.52;99.99
68251;DHT22;55066;51.560;4.642;2022-11-27T02:52:02;6.55;99.99
68251;DHT22;55066;51.560;4.642;2022-11-27T02:54:29;6.55;99.99
68251;DHT22;55066;51.560;4.642;2022-11-27T02:56:58;6.53;99.99
68251;DHT22;55066;51.560;4.642;2022-11-27T02:59:27;6.55;99.99
68251;DHT22;55066;51.560;4.642;2022-11-27T03:01:56;6.53;99.99
68251;DHT22;55066;51.560;4.642;2022-11-27T03:04:27;6.55;99.99
68251;DHT22;55066;51.560;4.642;2022-11-27T03:06:56;6.53;99.99
68251;DHT22;55066;51.560;4.642;2022-11-27T03:09:28;6.62;99.99
68251;DHT22;55066;51.560;4.642;2022-11-27T03:11:56;6.59;99.99
68251;DHT22;55066;51.560;4.642;2022-11-27T03:14:22;6.59;99.99
68251;DHT22;55066;51.560;4.642;2022-11-27T03:17:02;6.61;99.99
68251;DHT22;55066;51.560;4.642;2022-11-27T03:19:45;6.66;99.99
68251;DHT22;55066;51.560;4.642;2022-11-27T03:22:12;6.66;99.99
68251;DHT22;55066;51.560;4.642;2022-11-27T03:24:38;6.59;99.99
68251;DHT22;55066;51.560;4.642;2022-11-27T03:27:04;6.56;99.99
68251;DHT22;55066;51.560;4.642;2022-11-27T03:29:45;6.55;99.99
68251;DHT22;55066;51.560;4.642;2022-11-27T03:32:12;6.59;99.99
68251;DHT22;55066;51.560;4.642;2022-11-27T03:34:38;6.57;99.99
68251;DHT22;55066;51.560;4.642;2022-11-27T03:37:03;6.61;99.99
68251;DHT22;55066;51.560;4.642;2022-11-27T03:39:29;6.62;99.99
68251;DHT22;55066;51.560;4.642;2022-11-27T03:42:33;6.69;99.99
68251;DHT22;55066;51.560;4.642;2022-11-27T03:53:21;6.73;99.99
68251;DHT22;55066;51.560;4.642;2022-11-27T03:58:25;6.63;99.99
68251;DHT22;55066;51.560;4.642;2022-11-27T04:00:54;6.59;99.99
68251;DHT22;55066;51.560;4.642;2022-11-27T04:03:26;6.71;99.99
68251;DHT22;55066;51.560;4.642;2022-11-27T04:05:51;6.66;99.99
68251;DHT22;55066;51.560;4.642;2022-11-27T04:08:16;6.66;99.99
68251;DHT22;55066;51.560;4.642;2022-11-27T04:10:42;6.61;99.99
68251;DHT22;55066;51.560;4.642;2022-11-27T04:13:07;6.59;99.99
68251;DHT22;55066;51.560;4.642;2022-11-27T04:15:33;6.62;99.99
68251;DHT22;55066;51.560;4.642;2022-11-27T04:17:58;6.56;99.99
68251;DHT22;55066;51.560;4.642;2022-11-27T04:20:23;6.52;99.99
68251;DHT22;55066;51.560;4.642;2022-11-27T04:22:49;6.53;99.99
68251;DHT22;55066;51.560;4.642;2022-11-27T04:25:14;6.52;99.99
68251;DHT22;55066;51.560;4.642;2022-11-27T04:27:40;6.46;99.99
68251;DHT22;55066;51.560;4.642;2022-11-27T04:30:06;6.42;99.99
68251;DHT22;55066;51.560;4.642;2022-11-27T04:32:31;6.39;99.99
68251;DHT22;55066;51.560;4.642;2022-11-27T04:34:56;6.38;99.99
68251;DHT22;55066;51.560;4.642;2022-11-27T04:37:22;6.42;99.99
68251;DHT22;55066;51.560;4.642;2022-11-27T04:39:47;6.41;99.99
68251;DHT22;55066;51.560;4.642;2022-11-27T04:42:13;6.36;99.99
68251;DHT22;55066;51.560;4.642;2022-11-27T04:44:38;6.38;99.99
68251;DHT22;55066;51.560;4.642;2022-11-27T04:47:03;6.32;99.99
68251;DHT22;55066;51.560;4.642;2022-11-27T04:49:29;6.34;99.99
68251;DHT22;55066;51.560;4.642;2022-11-27T04:51:54;6.27;99.99
68251;DHT22;55066;51.560;4.642;2022-11-27T04:54:19;6.28;99.99
68251;DHT22;55066;51.560;4.642;2022-11-27T04:56:45;6.25;99.99
68251;DHT22;55066;51.560;4.642;2022-11-27T04:59:10;6.34;99.99
68251;DHT22;55066;51.560;4.642;2022-11-27T05:01:35;6.21;99.99
68251;DHT22;55066;51.560;4.642;2022-11-27T05:04:01;6.27;99.99
68251;DHT22;55066;51.560;4.642;2022-11-27T05:06:26;6.25;99.99
68251;DHT22;55066;51.560;4.642;2022-11-27T05:08:53;6.24;99.99
68251;DHT22;55066;51.560;4.642;2022-11-27T05:11:24;6.22;99.99
68251;DHT22;55066;51.560;4.642;2022-11-27T05:13:50;6.25;99.99
68251;DHT22;55066;51.560;4.642;2022-11-27T05:16:35;6.25;99.99
68251;DHT22;55066;51.560;4.642;2022-11-27T05:19:00;6.28;99.99
68251;DHT22;55066;51.560;4.642;2022-11-27T05:21:26;6.20;99.99
68251;DHT22;55066;51.560;4.642;2022-11-27T05:23:51;6.27;99.99
68251;DHT22;55066;51.560;4.642;2022-11-27T05:26:16;6.27;99.99
68251;DHT22;55066;51.560;4.642;2022-11-27T05:28:42;6.22;99.99
68251;DHT22;55066;51.560;4.642;2022-11-27T05:31:07;6.17;99.99
68251;DHT22;55066;51.560;4.642;2022-11-27T05:33:33;6.14;99.99
68251;DHT22;55066;51.560;4.642;2022-11-27T05:35:58;6.18;99.99
68251;DHT22;55066;51.560;4.642;2022-11-27T05:38:23;6.07;99.99
68251;DHT22;55066;51.560;4.642;2022-11-27T05:40:49;6.08;99.99
68251;DHT22;55066;51.560;4.642;2022-11-27T05:43:14;6.08;99.99
68251;DHT22;55066;51.560;4.642;2022-11-27T05:45:39;6.10;99.99
68251;DHT22;55066;51.560;4.642;2022-11-27T05:48:05;6.07;99.99
68251;DHT22;55066;51.560;4.642;2022-11-27T05:50:30;6.08;99.99
68251;DHT22;55066;51.560;4.642;2022-11-27T05:52:57;6.07;99.99
68251;DHT22;55066;51.560;4.642;2022-11-27T05:55:23;6.11;99.99
68251;DHT22;55066;51.560;4.642;2022-11-27T05:57:48;6.04;99.99
68251;DHT22;55066;51.560;4.642;2022-11-27T06:00:14;6.07;99.99
68251;DHT22;55066;51.560;4.642;2022-11-27T06:02:39;6.03;99.99
68251;DHT22;55066;51.560;4.642;2022-11-27T06:05:05;6.10;99.99
68251;DHT22;55066;51.560;4.642;2022-11-27T06:07:31;6.16;99.99
68251;DHT22;55066;51.560;4.642;2022-11-27T06:09:56;6.10;99.99
68251;DHT22;55066;51.560;4.642;2022-11-27T06:12:22;6.07;99.99
68251;DHT22;55066;51.560;4.642;2022-11-27T06:14:47;6.03;99.99
68251;DHT22;55066;51.560;4.642;2022-11-27T06:17:12;6.08;99.99
68251;DHT22;55066;51.560;4.642;2022-11-27T06:19:41;6.06;99.99
68251;DHT22;55066;51.560;4.642;2022-11-27T06:22:07;6.10;99.99
68251;DHT22;55066;51.560;4.642;2022-11-27T06:24:32;6.20;99.99
68251;DHT22;55066;51.560;4.642;2022-11-27T06:26:58;6.13;99.99
68251;DHT22;55066;51.560;4.642;2022-11-27T06:29:23;6.13;99.99
68251;DHT22;55066;51.560;4.642;2022-11-27T06:31:48;6.10;99.99
68251;DHT22;55066;51.560;4.642;2022-11-27T06:34:14;6.13;99.99
68251;DHT22;55066;51.560;4.642;2022-11-27T06:36:39;6.10;99.99
68251;DHT22;55066;51.560;4.642;2022-11-27T06:39:06;6.17;99.99
68251;DHT22;55066;51.560;4.642;2022-11-27T06:41:32;6.13;99.99
68251;DHT22;55066;51.560;4.642;2022-11-27T06:43:59;6.08;99.99
68251;DHT22;55066;51.560;4.642;2022-11-27T06:46:25;6.08;99.99
68251;DHT22;55066;51.560;4.642;2022-11-27T06:48:52;6.13;99.99
68251;DHT22;55066;51.560;4.642;2022-11-27T06:51:21;6.14;99.99
68251;DHT22;55066;51.560;4.642;2022-11-27T06:53:46;6.16;99.99
68251;DHT22;55066;51.560;4.642;2022-11-27T06:56:14;6.11;99.99
68251;DHT22;55066;51.560;4.642;2022-11-27T06:58:40;6.13;99.99
68251;DHT22;55066;51.560;4.642;2022-11-27T07:01:09;6.11;99.99
68251;DHT22;55066;51.560;4.642;2022-11-27T07:03:35;6.16;99.99
68251;DHT22;55066;51.560;4.642;2022-11-27T07:06:06;6.11;99.99
68251;DHT22;55066;51.560;4.642;2022-11-27T07:08:33;6.17;99.99
68251;DHT22;55066;51.560;4.642;2022-11-27T07:11:06;6.24;99.99
68251;DHT22;55066;51.560;4.642;2022-11-27T07:13:32;6.17;99.99
68251;DHT22;55066;51.560;4.642;2022-11-27T07:16:01;6.20;99.99
68251;DHT22;55066;51.560;4.642;2022-11-27T07:18:34;6.16;99.99
68251;DHT22;55066;51.560;4.642;2022-11-27T07:20:59;6.22;99.99
68251;DHT22;55066;51.560;4.642;2022-11-27T07:23:25;6.16;99.99
68251;DHT22;55066;51.560;4.642;2022-11-27T07:25:50;6.24;99.99
68251;DHT22;55066;51.560;4.642;2022-11-27T07:28:15;6.25;99.99
68251;DHT22;55066;51.560;4.642;2022-11-27T07:30:41;6.28;99.99
68251;DHT22;55066;51.560;4.642;2022-11-27T07:33:06;6.24;99.99
68251;DHT22;55066;51.560;4.642;2022-11-27T07:35:32;6.29;99.99
68251;DHT22;55066;51.560;4.642;2022-11-27T07:37:57;6.28;99.99
68251;DHT22;55066;51.560;4.642;2022-11-27T07:40:22;6.34;99.99
68251;DHT22;55066;51.560;4.642;2022-11-27T07:42:48;6.36;99.99
68251;DHT22;55066;51.560;4.642;2022-11-27T07:45:15;6.35;99.99
68251;DHT22;55066;51.560;4.642;2022-11-27T07:47:41;6.38;99.99
68251;DHT22;55066;51.560;4.642;2022-11-27T07:50:07;6.36;99.99
68251;DHT22;55066;51.560;4.642;2022-11-27T07:52:36;6.34;99.99
68251;DHT22;55066;51.560;4.642;2022-11-27T07:55:03;6.44;99.99
68251;DHT22;55066;51.560;4.642;2022-11-27T07:57:29;6.39;99.99
68251;DHT22;55066;51.560;4.642;2022-11-27T07:59:54;6.46;99.99
68251;DHT22;55066;51.560;4.642;2022-11-27T08:02:19;6.46;99.99
68251;DHT22;55066;51.560;4.642;2022-11-27T08:04:45;6.45;99.99
68251;DHT22;55066;51.560;4.642;2022-11-27T08:07:10;6.50;99.99
68251;DHT22;55066;51.560;4.642;2022-11-27T08:09:36;6.55;99.99
68251;DHT22;55066;51.560;4.642;2022-11-27T08:12:03;6.56;99.99
68251;DHT22;55066;51.560;4.642;2022-11-27T08:14:29;6.53;99.99
68251;DHT22;55066;51.560;4.642;2022-11-27T08:16:54;6.55;99.99
68251;DHT22;55066;51.560;4.642;2022-11-27T08:19:20;6.57;99.99
68251;DHT22;55066;51.560;4.642;2022-11-27T08:21:45;6.55;99.99
68251;DHT22;55066;51.560;4.642;2022-11-27T08:24:11;6.63;99.99
68251;DHT22;55066;51.560;4.642;2022-11-27T08:26:36;6.65;99.99
68251;DHT22;55066;51.560;4.642;2022-11-27T08:29:01;6.65;99.99
68251;DHT22;55066;51.560;4.642;2022-11-27T08:31:27;6.62;99.99
68251;DHT22;55066;51.560;4.642;2022-11-27T08:33:52;6.65;99.99
68251;DHT22;55066;51.560;4.642;2022-11-27T08:36:18;6.61;99.99
68251;DHT22;55066;51.560;4.642;2022-11-27T08:38:44;6.65;99.99
68251;DHT22;55066;51.560;4.642;2022-11-27T08:41:09;6.68;99.99
68251;DHT22;55066;51.560;4.642;2022-11-27T08:43:35;6.73;99.99
68251;DHT22;55066;51.560;4.642;2022-11-27T08:46:04;6.72;99.99
68251;DHT22;55066;51.560;4.642;2022-11-27T08:48:30;6.72;99.99
68251;DHT22;55066;51.560;4.642;2022-11-27T08:50:56;6.73;99.99
68251;DHT22;55066;51.560;4.642;2022-11-27T08:53:21;6.75;99.99
68251;DHT22;55066;51.560;4.642;2022-11-27T08:55:47;6.75;99.99
68251;DHT22;55066;51.560;4.642;2022-11-27T08:58:12;6.77;99.99
68251;DHT22;55066;51.560;4.642;2022-11-27T09:00:38;6.73;99.99
68251;DHT22;55066;51.560;4.642;2022-11-27T09:03:04;6.76;99.99
68251;DHT22;55066;51.560;4.642;2022-11-27T09:05:30;6.77;99.99
68251;DHT22;55066;51.560;4.642;2022-11-27T09:07:56;6.76;99.99
68251;DHT22;55066;51.560;4.642;2022-11-27T09:10:24;6.72;99.99
68251;DHT22;55066;51.560;4.642;2022-11-27T09:12:50;6.79;99.99
68251;DHT22;55066;51.560;4.642;2022-11-27T09:15:18;6.80;99.99
68251;DHT22;55066;51.560;4.642;2022-11-27T09:17:44;6.73;99.99
68251;DHT22;55066;51.560;4.642;2022-11-27T09:20:10;6.77;99.99
68251;DHT22;55066;51.560;4.642;2022-11-27T09:22:35;6.77;99.99
68251;DHT22;55066;51.560;4.642;2022-11-27T09:25:01;6.80;99.99
68251;DHT22;55066;51.560;4.642;2022-11-27T09:27:27;6.80;99.99
68251;DHT22;55066;51.560;4.642;2022-11-27T09:29:53;6.89;99.99
68251;DHT22;55066;51.560;4.642;2022-11-27T09:32:18;6.96;99.99
68251;DHT22;55066;51.560;4.642;2022-11-27T09:34:43;6.89;99.99
68251;DHT22;55066;51.560;4.642;2022-11-27T09:37:12;6.93;99.99
68251;DHT22;55066;51.560;4.642;2022-11-27T09:39:38;6.97;99.99
68251;DHT22;55066;51.560;4.642;2022-11-27T09:42:13;6.99;99.99
68251;DHT22;55066;51.560;4.642;2022-11-27T09:44:51;7.00;99.99
68251;DHT22;55066;51.560;4.642;2022-11-27T09:47:39;7.00;99.99
68251;DHT22;55066;51.560;4.642;2022-11-27T09:50:12;7.00;99.99
68251;DHT22;55066;51.560;4.642;2022-11-27T09:52:43;7.00;99.99
68251;DHT22;55066;51.560;4.642;2022-11-27T09:55:43;6.99;99.99
68251;DHT22;55066;51.560;4.642;2022-11-27T09:58:44;6.99;99.99
68251;DHT22;55066;51.560;4.642;2022-11-27T10:01:21;7.03;99.99
68251;DHT22;55066;51.560;4.642;2022-11-27T10:03:48;7.08;99.99
68251;DHT22;55066;51.560;4.642;2022-11-27T10:06:22;7.11;99.99
68251;DHT22;55066;51.560;4.642;2022-11-27T10:17:10;7.14;99.99
68251;DHT22;55066;51.560;4.642;2022-11-27T10:22:26;7.17;99.99
68251;DHT22;55066;51.560;4.642;2022-11-27T10:25:20;7.14;99.99
68251;DHT22;55066;51.560;4.642;2022-11-27T10:30:54;7.14;99.99
68251;DHT22;55066;51.560;4.642;2022-11-27T10:33:27;7.18;99.99
68251;DHT22;55066;51.560;4.642;2022-11-27T10:35:54;7.21;99.99
68251;DHT22;55066;51.560;4.642;2022-11-27T10:38:22;7.24;99.99
68251;DHT22;55066;51.560;4.642;2022-11-27T10:43:28;7.35;99.99
68251;DHT22;55066;51.560;4.642;2022-11-27T10:46:00;7.34;99.99
68251;DHT22;55066;51.560;4.642;2022-11-27T10:48:26;7.36;99.99
68251;DHT22;55066;51.560;4.642;2022-11-27T10:50:54;7.36;99.99
68251;DHT22;55066;51.560;4.642;2022-11-27T10:53:29;7.41;99.99
68251;DHT22;55066;51.560;4.642;2022-11-27T10:59:29;7.48;99.99
68251;DHT22;55066;51.560;4.642;2022-11-27T11:01:56;7.52;99.99
68251;DHT22;55066;51.560;4.642;2022-11-27T11:04:28;7.59;99.99
68251;DHT22;55066;51.560;4.642;2022-11-27T11:06:54;7.59;99.99
68251;DHT22;55066;51.560;4.642;2022-11-27T11:09:25;7.59;99.99
68251;DHT22;55066;51.560;4.642;2022-11-27T11:11:51;7.63;99.99
68251;DHT22;55066;51.560;4.642;2022-11-27T11:14:26;7.70;99.99
68251;DHT22;55066;51.560;4.642;2022-11-27T11:16:53;7.65;99.99
68251;DHT22;55066;51.560;4.642;2022-11-27T11:19:24;7.65;99.99
68251;DHT22;55066;51.560;4.642;2022-11-27T11:21:50;7.69;99.99
68251;DHT22;55066;51.560;4.642;2022-11-27T11:24:31;7.66;99.99
68251;DHT22;55066;51.560;4.642;2022-11-27T11:27:04;7.63;99.99
68251;DHT22;55066;51.560;4.642;2022-11-27T11:29:40;7.59;99.99
68251;DHT22;55066;51.560;4.642;2022-11-27T11:32:14;7.61;99.99
68251;DHT22;55066;51.560;4.642;2022-11-27T11:34:44;7.70;99.99
68251;DHT22;55066;51.560;4.642;2022-11-27T11:37:18;7.76;99.99
68251;DHT22;55066;51.560;4.642;2022-11-27T11:39:46;7.82;99.99
68251;DHT22;55066;51.560;4.642;2022-11-27T11:42:20;7.85;99.99
68251;DHT22;55066;51.560;4.642;2022-11-27T11:44:51;7.87;99.99
68251;DHT22;55066;51.560;4.642;2022-11-27T11:47:19;7.93;99.99
68251;DHT22;55066;51.560;4.642;2022-11-27T11:49:47;7.98;99.99
68251;DHT22;55066;51.560;4.642;2022-11-27T11:52:31;8.10;99.99
68251;DHT22;55066;51.560;4.642;2022-11-27T11:55:14;8.13;99.99
68251;DHT22;55066;51.560;4.642;2022-11-27T12:00:48;8.04;99.97
68251;DHT22;55066;51.560;4.642;2022-11-27T12:03:17;7.98;99.71
68251;DHT22;55066;51.560;4.642;2022-11-27T12:06:16;8.05;99.99
68251;DHT22;55066;51.560;4.642;2022-11-27T12:11:48;7.96;99.99
68251;DHT22;55066;51.560;4.642;2022-11-27T12:14:49;8.05;99.99
68251;DHT22;55066;51.560;4.642;2022-11-27T12:20:40;8.10;99.99
68251;DHT22;55066;51.560;4.642;2022-11-27T12:23:33;8.05;99.66
68251;DHT22;55066;51.560;4.642;2022-11-27T12:26:33;8.07;99.99
68251;DHT22;55066;51.560;4.642;2022-11-27T12:32:33;8.07;99.85
68251;DHT22;55066;51.560;4.642;2022-11-27T12:35:30;8.07;99.96
68251;DHT22;55066;51.560;4.642;2022-11-27T12:38:11;8.08;99.99
68251;DHT22;55066;51.560;4.642;2022-11-27T12:43:39;8.03;99.21
68251;DHT22;55066;51.560;4.642;2022-11-27T12:46:21;8.08;99.62
68251;DHT22;55066;51.560;4.642;2022-11-27T12:48:52;8.11;99.26
68251;DHT22;55066;51.560;4.642;2022-11-27T12:51:23;8.05;99.09
68251;DHT22;55066;51.560;4.642;2022-11-27T12:54:04;8.07;99.07
68251;DHT22;55066;51.560;4.642;2022-11-27T12:56:35;8.07;98.98
68251;DHT22;55066;51.560;4.642;2022-11-27T12:59:10;8.11;98.90
68251;DHT22;55066;51.560;4.642;2022-11-27T13:01:42;8.08;98.78
68251;DHT22;55066;51.560;4.642;2022-11-27T13:04:20;8.05;98.75
68251;DHT22;55066;51.560;4.642;2022-11-27T13:07:07;8.04;98.73
68251;DHT22;55066;51.560;4.642;2022-11-27T13:09:41;8.05;98.62
68251;DHT22;55066;51.560;4.642;2022-11-27T13:12:21;8.05;98.62
68251;DHT22;55066;51.560;4.642;2022-11-27T13:14:55;8.04;98.78
68251;DHT22;55066;51.560;4.642;2022-11-27T13:17:24;8.01;99.07
68251;DHT22;55066;51.560;4.642;2022-11-27T13:19:51;8.03;98.93
68251;DHT22;55066;51.560;4.642;2022-11-27T13:22:28;8.04;98.94
68251;DHT22;55066;51.560;4.642;2022-11-27T13:24:59;8.07;98.93
68251;DHT22;55066;51.560;4.642;2022-11-27T13:27:27;8.08;99.17
68251;DHT22;55066;51.560;4.642;2022-11-27T13:32:29;8.08;99.28
68251;DHT22;55066;51.560;4.642;2022-11-27T13:34:58;8.04;99.38
68251;DHT22;55066;51.560;4.642;2022-11-27T13:37:33;8.03;99.42
68251;DHT22;55066;51.560;4.642;2022-11-27T13:42:28;8.05;99.35
68251;DHT22;55066;51.560;4.642;2022-11-27T13:44:57;8.05;99.26
68251;DHT22;55066;51.560;4.642;2022-11-27T13:47:25;8.04;99.42
68251;DHT22;55066;51.560;4.642;2022-11-27T13:50:06;8.11;98.88
68251;DHT22;55066;51.560;4.642;2022-11-27T13:52:32;8.13;99.32
68251;DHT22;55066;51.560;4.642;2022-11-27T13:55:04;8.11;99.90
68251;DHT22;55066;51.560;4.642;2022-11-27T13:57:31;8.10;99.63
68251;DHT22;55066;51.560;4.642;2022-11-27T14:00:08;8.08;99.67
68251;DHT22;55066;51.560;4.642;2022-11-27T14:02:48;8.14;99.55
68251;DHT22;55066;51.560;4.642;2022-11-27T14:05:19;8.21;99.58
68251;DHT22;55066;51.560;4.642;2022-11-27T14:07:46;8.10;99.51
68251;DHT22;55066;51.560;4.642;2022-11-27T14:10:24;8.10;99.19
68251;DHT22;55066;51.560;4.642;2022-11-27T14:12:56;8.04;99.37
68251;DHT22;55066;51.560;4.642;2022-11-27T14:15:26;8.01;99.86
68251;DHT22;55066;51.560;4.642;2022-11-27T14:18:15;8.08;99.99
68251;DHT22;55066;51.560;4.642;2022-11-27T14:20:50;8.05;99.50
68251;DHT22;55066;51.560;4.642;2022-11-27T14:23:34;8.00;99.91
68251;DHT22;55066;51.560;4.642;2022-11-27T14:26:21;8.03;99.23
68251;DHT22;55066;51.560;4.642;2022-11-27T14:28:57;8.01;99.96
68251;DHT22;55066;51.560;4.642;2022-11-27T14:31:31;7.98;99.92
68251;DHT22;55066;51.560;4.642;2022-11-27T14:33:57;7.97;99.85
68251;DHT22;55066;51.560;4.642;2022-11-27T14:36:31;7.94;99.99
68251;DHT22;55066;51.560;4.642;2022-11-27T14:38:58;7.94;99.99
68251;DHT22;55066;51.560;4.642;2022-11-27T14:41:25;8.01;99.99
68251;DHT22;55066;51.560;4.642;2022-11-27T14:44:03;7.93;99.69
68251;DHT22;55066;51.560;4.642;2022-11-27T14:46:33;7.96;99.99
68251;DHT22;55066;51.560;4.642;2022-11-27T14:48:59;7.93;99.99
68251;DHT22;55066;51.560;4.642;2022-11-27T14:51:27;7.96;99.83
68251;DHT22;55066;51.560;4.642;2022-11-27T14:53:57;7.93;99.99
68251;DHT22;55066;51.560;4.642;2022-11-27T14:56:28;7.89;99.99
68251;DHT22;55066;51.560;4.642;2022-11-27T14:58:55;7.96;99.99
68251;DHT22;55066;51.560;4.642;2022-11-27T15:01:33;7.89;99.99
68251;DHT22;55066;51.560;4.642;2022-11-27T15:04:04;7.90;99.99
68251;DHT22;55066;51.560;4.642;2022-11-27T15:06:35;7.91;99.99
68251;DHT22;55066;51.560;4.642;2022-11-27T15:09:02;7.96;99.98
68251;DHT22;55066;51.560;4.642;2022-11-27T15:11:28;7.90;99.95
68251;DHT22;55066;51.560;4.642;2022-11-27T15:13:59;7.89;99.85
68251;DHT22;55066;51.560;4.642;2022-11-27T15:16:29;7.87;99.99
68251;DHT22;55066;51.560;4.642;2022-11-27T15:19:02;7.82;99.99
68251;DHT22;55066;51.560;4.642;2022-11-27T15:21:31;7.79;99.99
68251;DHT22;55066;51.560;4.642;2022-11-27T15:23:58;7.76;99.99
68251;DHT22;55066;51.560;4.642;2022-11-27T15:26:35;7.75;99.99
68251;DHT22;55066;51.560;4.642;2022-11-27T15:29:01;7.77;99.99
68251;DHT22;55066;51.560;4.642;2022-11-27T15:31:33;7.80;99.99
68251;DHT22;55066;51.560;4.642;2022-11-27T15:34:20;7.86;99.99
68251;DHT22;55066;51.560;4.642;2022-11-27T15:36:56;7.80;99.99
68251;DHT22;55066;51.560;4.642;2022-11-27T15:39:37;7.75;99.99
68251;DHT22;55066;51.560;4.642;2022-11-27T15:42:09;7.70;99.99
68251;DHT22;55066;51.560;4.642;2022-11-27T15:44:35;7.82;99.99
68251;DHT22;55066;51.560;4.642;2022-11-27T15:47:02;7.73;99.99
68251;DHT22;55066;51.560;4.642;2022-11-27T15:49:28;7.79;99.99
68251;DHT22;55066;51.560;4.642;2022-11-27T15:51:55;7.82;99.99
68251;DHT22;55066;51.560;4.642;2022-11-27T15:54:21;7.85;99.99
68251;DHT22;55066;51.560;4.642;2022-11-27T15:56:47;7.79;99.99
68251;DHT22;55066;51.560;4.642;2022-11-27T15:59:13;7.85;99.99
68251;DHT22;55066;51.560;4.642;2022-11-27T16:01:39;7.90;99.99
68251;DHT22;55066;51.560;4.642;2022-11-27T16:04:05;7.83;99.91
68251;DHT22;55066;51.560;4.642;2022-11-27T16:06:30;7.79;99.43
68251;DHT22;55066;51.560;4.642;2022-11-27T16:08:58;7.79;99.99
68251;DHT22;55066;51.560;4.642;2022-11-27T16:11:24;7.80;99.37
68251;DHT22;55066;51.560;4.642;2022-11-27T16:13:50;7.80;99.99
68251;DHT22;55066;51.560;4.642;2022-11-27T16:16:16;7.77;99.99
68251;DHT22;55066;51.560;4.642;2022-11-27T16:18:42;7.76;99.99
68251;DHT22;55066;51.560;4.642;2022-11-27T16:21:09;7.72;99.78
68251;DHT22;55066;51.560;4.642;2022-11-27T16:23:36;7.72;99.99
68251;DHT22;55066;51.560;4.642;2022-11-27T16:26:02;7.75;99.99
68251;DHT22;55066;51.560;4.642;2022-11-27T16:28:29;7.75;99.99
68251;DHT22;55066;51.560;4.642;2022-11-27T16:30:58;7.72;99.99
68251;DHT22;55066;51.560;4.642;2022-11-27T16:33:25;7.73;99.99
68251;DHT22;55066;51.560;4.642;2022-11-27T16:35:51;7.67;99.99
68251;DHT22;55066;51.560;4.642;2022-11-27T16:38:17;7.63;99.99
68251;DHT22;55066;51.560;4.642;2022-11-27T16:40:43;7.66;99.99
68251;DHT22;55066;51.560;4.642;2022-11-27T16:43:09;7.69;99.99
68251;DHT22;55066;51.560;4.642;2022-11-27T16:45:35;7.65;99.99
68251;DHT22;55066;51.560;4.642;2022-11-27T16:48:01;7.59;99.99
68251;DHT22;55066;51.560;4.642;2022-11-27T16:50:27;7.59;99.99
68251;DHT22;55066;51.560;4.642;2022-11-27T16:52:55;7.58;99.99
68251;DHT22;55066;51.560;4.642;2022-11-27T16:55:23;7.59;99.99
68251;DHT22;55066;51.560;4.642;2022-11-27T16:57:49;7.59;99.99
68251;DHT22;55066;51.560;4.642;2022-11-27T17:00:15;7.61;99.99
68251;DHT22;55066;51.560;4.642;2022-11-27T17:02:41;7.48;99.99
68251;DHT22;55066;51.560;4.642;2022-11-27T17:05:06;7.42;99.99
68251;DHT22;55066;51.560;4.642;2022-11-27T17:07:32;7.25;99.99